You are listening to:
CYXU App/Dep (London Sector) - London, Ontario, Canada

CYXU 201000Z 12003KT 1/4SM R15/1600FT/N FG SKC 18/18 A3009 RMK FG6 SLP188 DENSITY ALT 1400FT

If stream does not start automatically press the play button